Thursday, October 30, 2014, 10:23 AM EDT

KSBY, Salisbury-wicomico Cty Reg

Location: Salisbury, MD, United States Lat: 38.333
Local Time: 10:23 AM EDT (14:23 GMT) Lon: -75.5
Time Zone: US/Eastern Elev: 52 ft

Show me the last for .
Show Decoded

2014-10-30 09:54 METAR KSBY 301354Z 31006KT 10SM CLR 15/11 A3003 RMK AO2 SLP172 T01500106 =
2014-10-30 08:54 METAR KSBY 301254Z 00000KT 9SM FEW007 13/10 A3003 RMK AO2 SLP170 T01280100 =
2014-10-30 07:54 METAR KSBY 301154Z 00000KT 5SM MIFG SCT007 09/07 A3001 RMK AO2 SLP165 T00890072
                 10122 20089 53009 =
2014-10-30 07:47 METAR KSBY 301147Z 00000KT 5SM MIFG SCT007 09/07 A3001 RMK AO2 T00890072 =
2014-10-30 06:54 METAR KSBY 301054Z 00000KT 10SM CLR 10/08 A3000 RMK AO2 SLP160 T01000078 =
2014-10-30 05:54 METAR KSBY 300954Z AUTO 30003KT 10SM CLR 12/08 A2999 RMK AO2 SLP157 T01170083 =
2014-10-30 04:54 METAR KSBY 300854Z AUTO 33003KT 10SM CLR 12/09 A2998 =
2014-10-30 03:54 METAR KSBY 300754Z AUTO 27003KT 10SM FEW120 12/09 A2998 RMK AO2 SLP154 T01170089
                 =
2014-10-30 02:54 METAR KSBY 300654Z AUTO 00000KT 10SM CLR 11/08 A2998 =
2014-10-30 01:54 METAR KSBY 300554Z AUTO 36003KT 10SM CLR 11/09 A2997 RMK AO2 SLP150 60000
                 T01110089 10144 20111 58005 =
2014-10-30 00:54 METAR KSBY 300454Z AUTO 00000KT 10SM FEW065 SCT110 13/10 A2998 RMK AO2 SLP155
                 T01330100 402390128 =
2014-10-29 23:54 METAR KSBY 300354Z AUTO 00000KT 10SM OVC060 14/09 A2999 RMK AO2 RAB08E21 SLP157
                 P0000 T01390089 =
2014-10-29 22:54 METAR KSBY 300254Z AUTO 35003KT 10SM OVC050 14/09 A2998 RMK AO2 RAB0158E27
                 SLP155 P0000 60000 T01390089 50003 =
2014-10-29 21:54 METAR KSBY 300154Z 34003KT 10SM BKN045 OVC050 14/08 A2998 RMK AO2 RAB12E34
                 SLP156 P0000 T01440078 =
2014-10-29 20:54 METAR KSBY 300054Z 32006KT 10SM OVC039 14/08 A2998 RMK AO2 SLP153 T01440078 =
2014-10-29 19:54 METAR KSBY 292354Z 34004KT 10SM BKN038 BKN049 OVC090 14/08 A2997 RMK AO2
                 RAB05E29 SLP151 P0000 60000 T01440083 10239 20144 51019 =
2014-10-29 18:54 METAR KSBY 292254Z 36007KT 10SM SCT039 BKN080 OVC100 16/07 A2996 RMK AO2 SLP146
                 T01560072 =
2014-10-29 17:54 METAR KSBY 292154Z 34010KT 10SM OVC040 17/06 A2994 RMK AO2 SLP140 T01720061 =
2014-10-29 16:54 METAR KSBY 292054Z 34013KT 10SM FEW038 BKN050 18/08 A2992 RMK AO2 SLP132
                 T01830083 53013 =
2014-10-29 15:54 METAR KSBY 291954Z 32013G25KT 10SM BKN037 OVC048 21/10 A2990 RMK AO2 SLP128
                 T02060100 =
2014-10-29 14:54 METAR KSBY 291854Z 28008KT 10SM FEW029 BKN041 24/15 A2987 =
2014-10-29 14:45 METAR KSBY 291845Z 27009KT 10SM SCT029 BKN041 23/15 A2987 RMK AO2 T02280150 =
2014-10-29 14:33 METAR KSBY 291833Z 25011KT 6SM HZ BKN029 BKN037 23/15 A2988 RMK AO2 T02280150 =
2014-10-29 13:54 METAR KSBY 291754Z 22011KT 10SM FEW033 24/16 A2988 RMK AO2 SLP119 T02390156
                 10239 20183 58019 =
2014-10-29 12:54 METAR KSBY 291654Z 22008KT 10SM CLR 23/16 A2990 RMK AO2 SLP126 T02280156 =
2014-10-29 11:54 METAR KSBY 291554Z 25011KT 10SM CLR 23/16 A2993 RMK AO2 SLP136 T02280156 $ =
2014-10-29 10:54 METAR KSBY 291454Z 26010KT 4SM HZ CLR 23/16 A2993 RMK AO2 SLP138 T02330156 58003
                 $ =

Support USWX by starting your Amazon purchase here.